Time;durP1;ratioP1;P1;durP2;ratioP2;P2;SDS_P1;SDS_P2;PMS_P1;PMS_P2;Temp;Humidity;BMP_temperature;BMP_pressure;BME280_temperature;BME280_humidity;BME280_pressure;Samples;Min_cycle;Max_cycle;Signal;HPM_P1;HPM_P2
2023/09/02 00:01:01;;;;;;;1.05;0.80;;;;;;;27.54;37.70;100246.44;5016300;28;20541;-77
2023/09/02 00:03:35;;;;;;;0.85;0.75;;;;;;;27.47;38.98;100244.19;4997675;28;20057;-77
2023/09/02 00:06:05;;;;;;;1.27;0.90;;;;;;;27.53;38.49;100241.19;5008076;28;20057;-85
2023/09/02 00:08:34;;;;;;;1.13;0.90;;;;;;;27.53;38.06;100238.53;5008244;28;20050;-81
2023/09/02 00:11:03;;;;;;;1.30;0.98;;;;;;;27.59;39.01;100243.56;4997473;28;20039;-77
2023/09/02 00:13:31;;;;;;;1.00;0.80;;;;;;;27.63;39.69;100238.97;5007917;28;20054;-77
2023/09/02 00:16:00;;;;;;;1.90;1.10;;;;;;;27.68;39.56;100243.09;5005741;28;20584;-75
2023/09/02 00:18:29;;;;;;;1.80;1.20;;;;;;;27.69;40.29;100238.66;4998357;28;20042;-75
2023/09/02 00:20:57;;;;;;;1.13;0.80;;;;;;;27.60;39.63;100244.41;5005805;28;20054;-80
2023/09/02 00:23:28;;;;;;;3.28;1.10;;;;;;;27.47;39.81;100233.56;5012236;28;20057;-78
2023/09/02 00:25:57;;;;;;;1.70;0.93;;;;;;;27.41;40.03;100231.19;5023626;28;20054;-78
2023/09/02 00:28:28;;;;;;;1.50;1.00;;;;;;;27.33;40.16;100245.69;5009082;28;20501;-75
2023/09/02 00:30:56;;;;;;;1.10;0.88;;;;;;;27.29;39.68;100230.84;5006834;28;21207;-75
2023/09/02 00:33:25;;;;;;;1.33;0.90;;;;;;;27.29;40.54;100232.66;5009672;28;20561;-74
2023/09/02 00:35:54;;;;;;;1.75;1.20;;;;;;;27.18;39.61;100233.13;5004350;28;20554;-73
2023/09/02 00:38:22;;;;;;;1.25;1.00;;;;;;;27.08;39.24;100237.16;5022380;28;20038;-81
2023/09/02 00:41:00;;;;;;;3.10;1.20;;;;;;;26.96;38.91;100235.91;5030118;28;20100;-80
2023/09/02 00:43:30;;;;;;;1.40;1.20;;;;;;;26.88;38.89;100238.94;5027327;28;20122;-76
2023/09/02 00:46:00;;;;;;;1.77;1.27;;;;;;;26.86;40.02;100235.50;5030629;28;20050;-76
2023/09/02 00:48:37;;;;;;;2.40;1.00;;;;;;;26.86;39.64;100226.66;5017847;28;20065;-74
2023/09/02 00:51:05;;;;;;;2.30;1.10;;;;;;;26.68;39.91;100226.56;4998205;28;20034;-75
2023/09/02 00:53:34;;;;;;;1.38;1.10;;;;;;;26.61;39.42;100218.97;5006061;28;20054;-76
2023/09/02 00:56:04;;;;;;;2.25;1.00;;;;;;;26.70;40.48;100227.38;5004582;28;20056;-80
2023/09/02 00:58:36;;;;;;;2.72;1.20;;;;;;;26.68;40.24;100223.06;5002918;28;20057;-85
2023/09/02 01:01:05;;;;;;;;;;;;;;;26.67;39.36;100231.97;5001380;28;20046;-76
2023/09/02 01:03:35;;;;;;;1.85;1.05;;;;;;;26.68;39.31;100226.56;4999376;28;20303;-75
2023/09/02 01:06:04;;;;;;;1.73;1.15;;;;;;;26.71;39.71;100228.25;5003515;28;20081;-75
2023/09/02 01:08:34;;;;;;;2.03;1.00;;;;;;;26.74;39.18;100223.66;5004802;28;20124;-76
2023/09/02 01:11:05;;;;;;;1.77;1.10;;;;;;;26.79;39.07;100227.88;5010326;28;20077;-81
2023/09/02 01:13:33;;;;;;;1.00;0.88;;;;;;;26.79;39.94;100220.78;5004158;28;20050;-77
2023/09/02 01:16:02;;;;;;;2.20;1.20;;;;;;;26.77;38.87;100225.28;5009152;28;20050;-74
2023/09/02 01:18:33;;;;;;;2.05;1.00;;;;;;;26.77;38.86;100227.94;5001313;28;20054;-77
2023/09/02 01:21:22;;;;;;;1.42;1.10;;;;;;;26.77;40.21;100230.59;5002856;28;20547;-75
2023/09/02 01:24:17;;;;;;;2.25;1.33;;;;;;;26.73;39.70;100223.72;5006882;28;20093;-74
2023/09/02 01:27:06;;;;;;;2.10;1.25;;;;;;;26.72;39.14;100232.63;5011362;28;20094;-80
2023/09/02 01:29:38;;;;;;;1.67;1.10;;;;;;;26.71;39.33;100236.22;5008141;28;20156;-76
2023/09/02 01:32:12;;;;;;;1.83;1.10;;;;;;;26.70;40.29;100229.16;5004302;28;20046;-75
2023/09/02 01:34:42;;;;;;;4.20;1.40;;;;;;;26.64;40.05;100226.78;5009278;28;20289;-77
2023/09/02 01:37:12;;;;;;;1.55;1.10;;;;;;;26.60;40.59;100227.88;4998796;28;20062;-78
2023/09/02 01:39:42;;;;;;;1.70;1.40;;;;;;;26.58;41.39;100227.94;5005311;28;20049;-76
2023/09/02 01:42:17;;;;;;;1.75;1.30;;;;;;;26.56;40.10;100235.09;5006280;28;20041;-76
2023/09/02 01:44:46;;;;;;;3.95;1.40;;;;;;;26.53;40.35;100236.06;5007687;28;20150;-75
2023/09/02 01:47:17;;;;;;;1.90;1.38;;;;;;;26.52;40.65;100246.75;5001461;28;20745;-76
2023/09/02 01:49:52;;;;;;;2.05;1.58;;;;;;;26.48;41.01;100243.38;4998008;28;20106;-75
2023/09/02 01:52:23;;;;;;;2.83;1.50;;;;;;;26.42;41.25;100248.97;4994025;28;20046;-79
2023/09/02 01:54:53;;;;;;;2.55;1.40;;;;;;;26.39;40.43;100248.22;5005497;28;20042;-76
2023/09/02 01:57:23;;;;;;;4.00;1.40;;;;;;;26.36;40.18;100248.38;5001816;28;20045;-80
2023/09/02 01:59:54;;;;;;;2.05;1.55;;;;;;;26.33;40.08;100249.38;4994329;28;20093;-77
2023/09/02 02:02:23;;;;;;;2.73;1.47;;;;;;;26.29;41.86;100250.41;4999104;28;20592;-78
2023/09/02 02:04:57;;;;;;;2.53;1.35;;;;;;;26.25;41.35;100256.78;5005921;28;20291;-79
2023/09/02 02:07:34;;;;;;;2.63;1.45;;;;;;;26.22;42.18;100246.31;5008436;28;20060;-79
2023/09/02 02:10:05;;;;;;;2.30;1.40;;;;;;;26.19;42.99;100251.75;5003613;28;20050;-79
2023/09/02 02:12:36;;;;;;;1.98;1.40;;;;;;;26.15;43.48;100252.81;5003753;28;20488;-78
2023/09/02 02:15:06;;;;;;;1.65;1.30;;;;;;;26.04;43.03;100237.34;5020886;28;20050;-75
2023/09/02 02:17:37;;;;;;;1.85;1.42;;;;;;;26.04;42.87;100254.13;5002762;28;20144;-79
2023/09/02 02:20:06;;;;;;;1.65;1.35;;;;;;;25.99;43.31;100248.16;4997393;28;20072;-79
2023/09/02 02:22:35;;;;;;;2.40;1.38;;;;;;;25.93;43.32;100256.41;4999933;28;20053;-78
2023/09/02 02:25:04;;;;;;;2.30;1.50;;;;;;;25.88;43.34;100253.06;5008163;28;20064;-78
2023/09/02 02:27:39;;;;;;;2.30;1.60;;;;;;;25.81;42.79;100247.09;5006409;28;20061;-79
2023/09/02 02:30:09;;;;;;;1.52;1.20;;;;;;;25.72;43.33;100242.19;5006506;28;20046;-79
2023/09/02 02:32:37;;;;;;;4.45;1.45;;;;;;;25.64;43.35;100245.19;5006959;28;20092;-78
2023/09/02 02:35:07;;;;;;;2.30;1.40;;;;;;;25.57;43.17;100248.16;5007271;28;20056;-79
2023/09/02 02:37:35;;;;;;;2.20;1.40;;;;;;;25.52;43.49;100252.75;5001960;28;20567;-76
2023/09/02 02:40:06;;;;;;;3.63;1.70;;;;;;;25.45;43.78;100254.81;5005713;28;20046;-77
2023/09/02 02:42:37;;;;;;;3.70;1.75;;;;;;;25.38;43.42;100259.47;5001174;28;20054;-78
2023/09/02 02:45:06;;;;;;;3.65;1.42;;;;;;;25.32;43.72;100253.56;5001143;28;20053;-79
2023/09/02 02:47:34;;;;;;;2.85;1.30;;;;;;;25.24;44.27;100249.44;5004289;28;20116;-79
2023/09/02 02:50:03;;;;;;;2.53;1.65;;;;;;;25.16;44.16;100250.63;4999617;28;20069;-78
2023/09/02 02:52:32;;;;;;;2.58;1.70;;;;;;;25.11;44.60;100249.94;5004766;28;20238;-76
2023/09/02 02:55:00;;;;;;;2.20;1.58;;;;;;;25.02;44.31;100254.66;5006764;28;20192;-77
2023/09/02 02:57:29;;;;;;;3.58;1.70;;;;;;;24.94;44.13;100254.06;5001427;28;20053;-78
2023/09/02 02:59:59;;;;;;;2.15;1.50;;;;;;;24.87;43.95;100258.72;4998052;28;20502;-80
2023/09/02 03:02:31;;;;;;;2.22;1.50;;;;;;;24.80;45.02;100265.19;4999393;28;20069;-76
2023/09/02 03:04:59;;;;;;;;;;;;;;;24.75;45.29;100261.00;4996157;28;20144;-75
2023/09/02 03:07:28;;;;;;;1.90;1.50;;;;;;;24.69;44.26;100266.50;5003984;28;20032;-77
2023/09/02 03:09:56;;;;;;;2.65;1.48;;;;;;;24.63;45.25;100271.09;5005894;28;20872;-77
2023/09/02 03:12:25;;;;;;;2.00;1.65;;;;;;;24.59;44.98;100285.34;5004412;28;20046;-75
2023/09/02 03:14:54;;;;;;;4.00;1.45;;;;;;;24.55;46.96;100281.09;5015644;28;20050;-75
2023/09/02 03:17:25;;;;;;;3.45;1.65;;;;;;;24.50;46.05;100275.09;5005250;28;20539;-75
2023/09/02 03:19:53;;;;;;;4.82;1.70;;;;;;;24.44;49.41;100280.56;5007767;28;20054;-76
2023/09/02 03:22:22;;;;;;;4.38;1.60;;;;;;;24.34;50.67;100281.81;5002600;28;20488;-79
2023/09/02 03:24:57;;;;;;;3.42;1.40;;;;;;;24.22;51.88;100288.41;5012330;28;20121;-76
2023/09/02 03:27:26;;;;;;;2.60;1.55;;;;;;;24.14;48.44;100282.50;5015036;28;20073;-79
2023/09/02 03:29:55;;;;;;;2.38;1.65;;;;;;;24.10;48.57;100292.34;5018582;28;20049;-78
2023/09/02 03:32:26;;;;;;;2.08;1.60;;;;;;;24.07;48.36;100291.56;5021766;28;20100;-78
2023/09/02 03:34:55;;;;;;;2.25;1.45;;;;;;;24.02;48.32;100289.94;5024145;28;20038;-78
2023/09/02 03:37:24;;;;;;;2.38;1.50;;;;;;;23.95;49.70;100298.97;5025208;28;20067;-78
2023/09/02 03:39:52;;;;;;;6.22;1.77;;;;;;;23.92;51.72;100304.38;5031317;28;20037;-79
2023/09/02 03:42:21;;;;;;;2.42;1.63;;;;;;;23.87;51.80;100314.25;5026641;28;20069;-78
2023/09/02 03:44:50;;;;;;;4.07;1.33;;;;;;;23.83;50.96;100302.03;5013931;28;20065;-78
2023/09/02 03:47:18;;;;;;;3.47;1.70;;;;;;;23.77;50.92;100300.44;5010608;28;20670;-77
2023/09/02 03:49:55;;;;;;;5.05;1.38;;;;;;;23.76;51.21;100303.16;5012783;28;20052;-77
2023/09/02 03:52:24;;;;;;;3.10;1.50;;;;;;;23.73;51.71;100309.38;5004261;28;20551;-77
2023/09/02 03:54:53;;;;;;;2.33;1.35;;;;;;;23.71;52.99;100310.31;5004792;28;20050;-76
2023/09/02 03:57:24;;;;;;;6.78;1.75;;;;;;;23.66;52.69;100306.94;5006934;28;20075;-76
2023/09/02 03:59:53;;;;;;;2.92;1.40;;;;;;;23.62;52.94;100312.34;5005005;28;20048;-76
2023/09/02 04:02:22;;;;;;;1.63;1.30;;;;;;;23.58;52.86;100310.72;5005439;28;20073;-76
2023/09/02 04:04:50;;;;;;;3.55;1.60;;;;;;;23.53;53.29;100307.34;5005295;28;20050;-76
2023/09/02 04:07:25;;;;;;;3.00;1.90;;;;;;;23.51;53.06;100309.19;5008978;28;20045;-76
2023/09/02 04:09:54;;;;;;;2.72;1.77;;;;;;;23.46;53.36;100310.25;4996702;28;20113;-75
2023/09/02 04:12:23;;;;;;;2.63;1.67;;;;;;;23.43;54.37;100316.44;4992747;28;20046;-76
2023/09/02 04:14:52;;;;;;;3.88;1.70;;;;;;;23.39;54.19;100307.78;4998637;28;20054;-75
2023/09/02 04:17:20;;;;;;;2.88;2.10;;;;;;;23.35;53.90;100311.41;5006792;28;20749;-75
2023/09/02 04:19:56;;;;;;;4.50;1.67;;;;;;;23.32;54.77;100308.00;5007160;28;20041;-75
2023/09/02 04:22:29;;;;;;;2.10;1.55;;;;;;;23.29;55.06;100305.47;5003750;28;20045;-75
2023/09/02 04:24:58;;;;;;;4.68;1.60;;;;;;;23.25;54.12;100298.53;5005298;28;20165;-75
2023/09/02 04:27:26;;;;;;;3.03;2.08;;;;;;;23.18;54.18;100295.22;5003059;28;20129;-76
2023/09/02 04:29:55;;;;;;;1.98;1.40;;;;;;;23.15;53.61;100295.31;5008884;28;20058;-76
2023/09/02 04:32:23;;;;;;;2.58;1.50;;;;;;;23.10;53.83;100300.72;5004504;28;20054;-75
2023/09/02 04:34:52;;;;;;;2.95;1.92;;;;;;;23.04;54.36;100306.19;5005218;28;20273;-74
2023/09/02 04:37:21;;;;;;;2.58;1.90;;;;;;;23.01;54.70;100314.19;5014792;28;20522;-75
2023/09/02 04:39:54;;;;;;;4.90;1.80;;;;;;;22.98;57.43;100314.25;5007666;28;20046;-76
2023/09/02 04:42:22;;;;;;;2.65;2.10;;;;;;;22.96;57.31;100310.78;5006220;28;20257;-76
2023/09/02 04:44:52;;;;;;;4.13;1.48;;;;;;;22.90;58.05;100311.81;5009628;28;20104;-77
2023/09/02 04:47:20;;;;;;;4.40;2.08;;;;;;;22.83;57.58;100305.00;5007379;28;20141;-78
2023/09/02 04:49:49;;;;;;;3.20;1.85;;;;;;;22.75;57.44;100323.69;5008255;28;20101;-76
2023/09/02 04:52:20;;;;;;;5.00;1.83;;;;;;;22.66;57.28;100328.34;5006882;28;20042;-74
2023/09/02 04:54:56;;;;;;;3.83;2.00;;;;;;;22.57;57.63;100329.47;5005007;28;20046;-75
2023/09/02 04:57:25;;;;;;;2.40;1.60;;;;;;;22.52;58.38;100337.50;5003929;28;20085;-74
2023/09/02 04:59:54;;;;;;;2.22;1.60;;;;;;;22.47;59.06;100333.22;5009910;28;20080;-76
2023/09/02 05:02:25;;;;;;;5.18;2.00;;;;;;;22.50;59.61;100338.44;5006229;28;20058;-74
2023/09/02 05:04:54;;;;;;;3.75;1.92;;;;;;;22.49;57.94;100352.50;5009633;28;20492;-75
2023/09/02 05:07:23;;;;;;;9.80;2.33;;;;;;;22.46;60.14;100347.31;5005009;28;20066;-75
2023/09/02 05:09:55;;;;;;;4.97;1.77;;;;;;;22.45;58.98;100342.94;5013084;28;20062;-74
2023/09/02 05:12:23;;;;;;;3.85;1.88;;;;;;;22.42;57.28;100350.94;5005304;28;20049;-72
2023/09/02 05:14:52;;;;;;;3.72;1.92;;;;;;;22.40;56.36;100345.69;5006606;28;20133;-74
2023/09/02 05:17:21;;;;;;;2.60;1.90;;;;;;;22.38;56.27;100350.19;5009901;28;20046;-72
2023/09/02 05:19:49;;;;;;;3.63;1.88;;;;;;;22.34;56.57;100348.53;4997378;28;20054;-73
2023/09/02 05:22:18;;;;;;;3.15;2.00;;;;;;;22.31;59.26;100343.31;4990875;28;20054;-76
2023/09/02 05:24:46;;;;;;;3.03;2.03;;;;;;;22.27;58.29;100350.44;5004543;28;20630;-75
2023/09/02 05:27:17;;;;;;;4.43;1.98;;;;;;;22.25;58.44;100344.34;5004109;28;20092;-75
2023/09/02 05:29:46;;;;;;;1.98;1.63;;;;;;;22.22;57.46;100340.91;5005226;28;20088;-74
2023/09/02 05:32:15;;;;;;;3.08;2.08;;;;;;;22.17;56.99;100344.50;5007671;28;20555;-75
2023/09/02 05:34:44;;;;;;;4.65;2.45;;;;;;;22.17;57.88;100340.97;5006062;28;20050;-74
2023/09/02 05:37:15;;;;;;;2.65;1.73;;;;;;;22.16;59.55;100331.34;5003875;28;20555;-75
2023/09/02 05:39:44;;;;;;;3.42;2.00;;;;;;;22.15;60.86;100340.16;5005123;28;20060;-75
2023/09/02 05:42:12;;;;;;;3.75;1.70;;;;;;;22.14;60.28;100335.81;5006428;28;20608;-77
2023/09/02 05:44:43;;;;;;;5.45;2.13;;;;;;;22.10;59.81;100339.41;5008721;28;20038;-76
2023/09/02 05:47:14;;;;;;;4.93;2.20;;;;;;;22.03;59.71;100343.09;5003984;28;20058;-75
2023/09/02 05:49:43;;;;;;;2.80;1.98;;;;;;;21.98;59.49;100345.84;5009149;28;20513;-76
2023/09/02 05:52:11;;;;;;;6.40;2.40;;;;;;;21.91;59.60;100355.66;5007016;28;20046;-76
2023/09/02 05:54:40;;;;;;;2.70;1.85;;;;;;;21.83;59.98;100356.72;4998379;28;20046;-75
2023/09/02 05:57:14;;;;;;;3.42;2.00;;;;;;;21.77;60.29;100360.38;4987353;28;20049;-78
2023/09/02 05:59:46;;;;;;;3.10;2.00;;;;;;;21.75;60.78;100365.69;5000726;28;20065;-73
2023/09/02 06:02:14;;;;;;;3.28;2.17;;;;;;;21.67;61.31;100356.22;5007294;28;20049;-75
2023/09/02 06:04:43;;;;;;;4.45;2.10;;;;;;;21.67;61.79;100348.31;5005977;28;20054;-75
2023/09/02 06:07:11;;;;;;;4.32;2.15;;;;;;;21.68;61.41;100357.97;5004409;28;20504;-75
2023/09/02 06:09:40;;;;;;;4.32;2.10;;;;;;;21.63;61.26;100365.13;5005376;28;20464;-75
2023/09/02 06:12:09;;;;;;;3.05;2.10;;;;;;;21.58;61.27;100359.94;5000291;28;20052;-75
2023/09/02 06:14:37;;;;;;;2.53;2.05;;;;;;;21.52;60.14;100363.56;5004063;28;20267;-74
2023/09/02 06:17:08;;;;;;;3.85;2.00;;;;;;;21.49;60.64;100378.59;5009142;28;20053;-73
2023/09/02 06:19:37;;;;;;;3.63;2.10;;;;;;;21.43;60.89;100369.03;5006440;28;20046;-73
2023/09/02 06:22:08;;;;;;;3.15;2.10;;;;;;;21.38;61.44;100375.28;5011822;28;20052;-75
2023/09/02 06:24:36;;;;;;;3.42;2.42;;;;;;;21.32;62.37;100376.25;5020359;28;20073;-76
2023/09/02 06:27:05;;;;;;;3.35;1.98;;;;;;;21.28;61.96;100371.94;5009366;28;20061;-74
2023/09/02 06:29:34;;;;;;;3.47;2.35;;;;;;;21.25;62.20;100385.19;4999817;28;20062;-74
2023/09/02 06:32:04;;;;;;;3.42;1.83;;;;;;;21.20;62.27;100385.28;5009885;28;20096;-75
2023/09/02 06:34:34;;;;;;;3.15;1.83;;;;;;;21.17;62.27;100387.13;5015887;28;20065;-73
2023/09/02 06:37:03;;;;;;;4.85;1.88;;;;;;;21.05;63.53;100377.66;5017595;28;20054;-75
2023/09/02 06:39:32;;;;;;;3.97;2.42;;;;;;;21.11;64.32;100388.09;5011413;28;20210;-75
2023/09/02 06:42:00;;;;;;;3.22;2.20;;;;;;;21.09;66.40;100380.22;5007382;28;20049;-74
2023/09/02 06:44:31;;;;;;;4.15;2.47;;;;;;;21.10;67.53;100371.44;5005417;28;20041;-76
2023/09/02 06:47:00;;;;;;;7.30;2.47;;;;;;;21.06;67.47;100369.75;5006080;28;20050;-75
2023/09/02 06:49:28;;;;;;;5.13;2.13;;;;;;;21.02;67.68;100375.97;5005867;28;20050;-75
2023/09/02 06:51:58;;;;;;;3.50;2.50;;;;;;;21.00;67.31;100369.00;5006128;28;20463;-75
2023/09/02 06:54:29;;;;;;;2.90;2.00;;;;;;;20.97;67.22;100364.69;5003309;28;20679;-75
2023/09/02 06:56:58;;;;;;;4.18;2.33;;;;;;;20.95;67.36;100371.72;5003029;28;20621;-75
2023/09/02 06:59:26;;;;;;;4.68;2.35;;;;;;;20.91;67.52;100370.94;5007182;28;20053;-75
2023/09/02 07:01:55;;;;;;;4.03;2.15;;;;;;;20.84;67.42;100369.31;5007324;28;20062;-74
2023/09/02 07:04:23;;;;;;;2.42;1.83;;;;;;;20.86;68.38;100383.28;5004948;28;20052;-75
2023/09/02 07:06:54;;;;;;;3.58;2.33;;;;;;;20.86;68.92;100385.06;5008522;28;20045;-76
2023/09/02 07:09:25;;;;;;;6.05;2.03;;;;;;;20.86;69.77;100392.94;5002949;28;20488;-77
2023/09/02 07:11:55;;;;;;;3.40;1.92;;;;;;;20.83;70.41;100393.88;5001574;28;20042;-76
2023/09/02 07:14:23;;;;;;;4.57;2.35;;;;;;;20.82;69.53;100393.91;5003676;28;20060;-75
2023/09/02 07:16:52;;;;;;;3.75;2.38;;;;;;;20.79;69.69;100397.44;5014386;28;20049;-77
2023/09/02 07:19:21;;;;;;;4.40;2.72;;;;;;;20.76;69.51;100392.25;5009946;28;20053;-75
2023/09/02 07:21:50;;;;;;;4.82;3.08;;;;;;;20.76;69.77;100396.66;5001743;28;20480;-73
2023/09/02 07:24:18;;;;;;;3.67;2.42;;;;;;;20.75;70.72;100392.28;5009843;28;20053;-73
2023/09/02 07:26:48;;;;;;;3.28;2.47;;;;;;;20.74;71.33;100408.97;5002358;28;20054;-74
2023/09/02 07:29:17;;;;;;;5.18;2.25;;;;;;;20.75;72.02;100411.53;4997822;28;20492;-74
2023/09/02 07:31:48;;;;;;;2.17;1.55;;;;;;;20.76;72.68;100415.91;5003290;28;20613;-74
2023/09/02 07:34:16;;;;;;;4.05;2.88;;;;;;;20.79;72.86;100412.38;5003977;28;20168;-75
2023/09/02 07:36:45;;;;;;;5.95;2.47;;;;;;;20.81;72.43;100406.19;5002900;28;20046;-75
2023/09/02 07:39:16;;;;;;;3.63;1.98;;;;;;;20.82;72.56;100417.56;5005677;28;20042;-74
2023/09/02 07:41:48;;;;;;;3.50;1.83;;;;;;;20.82;73.83;100420.19;5003540;28;20607;-76
2023/09/02 07:44:18;;;;;;;;;;;;;;;20.81;74.12;100415.84;5007151;28;20050;-77
2023/09/02 07:46:46;;;;;;;5.00;2.90;;;;;;;20.76;73.12;100429.06;4998692;28;20362;-75
2023/09/02 07:49:15;;;;;;;4.97;2.25;;;;;;;20.74;75.44;100424.72;5000045;28;20053;-76
2023/09/02 07:51:50;;;;;;;6.25;2.85;;;;;;;20.71;73.87;100426.53;5001556;28;20050;-77
2023/09/02 07:54:18;;;;;;;4.63;2.83;;;;;;;20.68;73.80;100426.59;5004422;28;20053;-76
2023/09/02 07:56:47;;;;;;;3.38;2.33;;;;;;;20.65;73.39;100421.34;5005842;28;20041;-77
2023/09/02 07:59:15;;;;;;;4.03;2.13;;;;;;;20.62;72.96;100424.06;5008746;28;20050;-77
2023/09/02 08:01:46;;;;;;;5.82;2.70;;;;;;;20.58;72.72;100417.09;5003760;28;20053;-75
2023/09/02 08:04:16;;;;;;;5.63;2.55;;;;;;;20.57;72.76;100417.13;5005876;28;20049;-75
2023/09/02 08:06:45;;;;;;;4.78;2.78;;;;;;;20.55;73.32;100419.75;5003557;28;20077;-75
2023/09/02 08:09:14;;;;;;;7.72;3.08;;;;;;;20.56;73.34;100434.66;5009322;28;20046;-75
2023/09/02 08:11:42;;;;;;;5.03;3.60;;;;;;;20.54;73.64;100428.53;5008430;28;20914;-75
2023/09/02 08:14:13;;;;;;;6.85;3.22;;;;;;;20.54;74.67;100428.53;5007006;28;20568;-75
2023/09/02 08:16:41;;;;;;;3.38;2.45;;;;;;;20.52;74.77;100430.31;5000552;28;20511;-77
2023/09/02 08:19:12;;;;;;;4.97;3.35;;;;;;;20.49;74.51;100422.47;5009434;28;20053;-76
2023/09/02 08:21:40;;;;;;;4.03;2.97;;;;;;;20.45;73.89;100415.53;5008614;28;20092;-77
2023/09/02 08:24:09;;;;;;;4.13;3.25;;;;;;;20.40;73.93;100417.38;5007906;28;20124;-74
2023/09/02 08:26:40;;;;;;;5.05;3.30;;;;;;;20.35;74.12;100417.47;5005499;28;20050;-76
2023/09/02 08:29:08;;;;;;;4.53;3.30;;;;;;;20.32;74.42;100412.25;5010952;28;20507;-75
2023/09/02 08:31:36;;;;;;;3.60;2.70;;;;;;;20.30;74.54;100414.91;5014444;28;20049;-76
2023/09/02 08:34:05;;;;;;;5.00;3.15;;;;;;;20.27;74.57;100414.97;5007784;28;20042;-74
2023/09/02 08:36:35;;;;;;;4.63;2.53;;;;;;;20.26;75.24;100409.72;5006820;28;20061;-76
2023/09/02 08:39:06;;;;;;;4.65;3.40;;;;;;;20.26;74.61;100404.47;5005613;28;20407;-76
2023/09/02 08:41:37;;;;;;;3.90;2.83;;;;;;;20.24;76.49;100396.59;5007925;28;20050;-74
2023/09/02 08:44:06;;;;;;;6.67;2.60;;;;;;;20.22;76.00;100395.75;5007922;28;20061;-75
2023/09/02 08:46:42;;;;;;;3.50;2.50;;;;;;;20.21;76.23;100401.06;5014345;28;20037;-73
2023/09/02 08:49:11;;;;;;;5.32;2.83;;;;;;;20.19;76.74;100401.06;5010475;28;20109;-74
2023/09/02 08:51:42;;;;;;;4.72;2.40;;;;;;;20.06;77.79;100381.13;5008087;28;20054;-75
2023/09/02 08:54:12;;;;;;;5.95;2.55;;;;;;;20.14;79.17;100392.41;5006466;28;20058;-76
2023/09/02 08:56:45;;;;;;;3.70;2.35;;;;;;;20.10;78.71;100382.81;5009159;28;20520;-75
2023/09/02 08:59:15;;;;;;;4.93;2.85;;;;;;;20.11;77.44;100392.44;5007862;28;20152;-75
2023/09/02 09:01:45;;;;;;;6.82;2.97;;;;;;;20.13;78.00;100395.91;5006014;28;20053;-75
2023/09/02 09:04:17;;;;;;;6.03;2.78;;;;;;;20.14;78.41;100395.03;5014036;28;20053;-74
2023/09/02 09:06:48;;;;;;;5.80;2.60;;;;;;;20.16;78.77;100393.25;5010869;28;20086;-76
2023/09/02 09:09:19;;;;;;;5.63;2.45;;;;;;;20.15;78.88;100394.13;5002392;28;20111;-75
2023/09/02 09:11:48;;;;;;;5.90;2.95;;;;;;;20.12;77.93;100382.81;5016252;28;20521;-75
2023/09/02 09:14:22;;;;;;;3.75;2.40;;;;;;;20.11;77.36;100376.66;5011204;28;20049;-75
2023/09/02 09:16:53;;;;;;;4.95;2.78;;;;;;;20.07;79.51;100370.63;5023191;28;20069;-75
2023/09/02 09:19:23;;;;;;;5.53;3.15;;;;;;;20.10;78.19;100377.56;5016666;28;20522;-75
2023/09/02 09:21:54;;;;;;;4.53;2.92;;;;;;;20.10;78.05;100380.19;5026465;28;20038;-74
2023/09/02 09:24:23;;;;;;;5.28;2.88;;;;;;;20.08;77.29;100371.47;5024338;28;20073;-75
2023/09/02 09:26:54;;;;;;;5.25;2.60;;;;;;;20.11;76.76;100366.16;5029614;28;20050;-75
2023/09/02 09:29:22;;;;;;;7.78;3.35;;;;;;;20.11;76.73;100360.91;5029447;28;20097;-74
2023/09/02 09:32:08;;;;;;;4.43;2.85;;;;;;;20.11;78.80;100360.91;5016659;28;20087;-73
2023/09/02 09:34:38;;;;;;;7.72;3.08;;;;;;;20.09;76.83;100352.22;5005516;28;20038;-72
2023/09/02 09:37:09;;;;;;;3.97;2.88;;;;;;;20.07;78.28;100372.38;5007037;28;20058;-73
2023/09/02 09:39:45;;;;;;;4.00;2.58;;;;;;;20.00;77.36;100391.75;5000999;28;20054;-74
2023/09/02 09:42:15;;;;;;;5.30;2.60;;;;;;;19.94;77.09;100412.84;5002626;28;20046;-72
2023/09/02 09:44:54;;;;;;;4.40;2.45;;;;;;;19.93;77.11;100426.84;5008720;28;20045;-73
2023/09/02 09:47:27;;;;;;;8.75;2.85;;;;;;;19.90;77.23;100430.38;5005658;28;20531;-72
2023/09/02 09:50:12;;;;;;;4.75;2.80;;;;;;;19.87;77.52;100428.66;5008477;28;20061;-74
2023/09/02 09:52:44;;;;;;;3.22;1.98;;;;;;;19.87;78.00;100423.41;5005429;28;20054;-74
2023/09/02 09:55:23;;;;;;;;;;;;;;;19.89;79.38;100410.28;5010874;28;20082;-75
2023/09/02 09:57:55;;;;;;;8.45;3.60;;;;;;;19.88;80.53;100401.53;5008105;28;20511;-75
2023/09/02 10:00:24;;;;;;;;;;;;;;;19.86;79.83;100391.97;5006116;28;20045;-75
2023/09/02 10:02:56;;;;;;;5.68;3.60;;;;;;;19.83;78.53;100387.59;5007046;28;19928;-75
2023/09/02 10:05:29;;;;;;;5.47;3.50;;;;;;;19.82;79.08;100393.75;5005226;28;20563;-72
2023/09/02 10:08:06;;;;;;;6.22;3.25;;;;;;;19.82;79.05;100401.63;5006541;28;20111;-73
2023/09/02 10:10:40;;;;;;;7.47;3.22;;;;;;;19.75;78.35;100389.47;5008086;28;20054;-72
2023/09/02 10:13:08;;;;;;;10.25;2.70;;;;;;;19.83;78.17;100398.09;5003995;28;20042;-73
2023/09/02 10:15:38;;;;;;;4.60;2.75;;;;;;;19.85;77.80;100398.94;5007168;28;20508;-74
2023/09/02 10:18:06;;;;;;;4.65;3.00;;;;;;;19.90;76.13;100398.00;5013296;28;20042;-72
2023/09/02 10:20:38;;;;;;;4.30;2.80;;;;;;;19.91;76.16;100400.63;5001068;28;20072;-72
2023/09/02 10:23:09;;;;;;;3.95;2.53;;;;;;;19.95;75.50;100409.31;5003663;28;20052;-71
2023/09/02 10:25:47;;;;;;;6.47;3.70;;;;;;;19.97;74.80;100407.53;5005364;28;20116;-71
2023/09/02 10:28:26;;;;;;;5.35;4.03;;;;;;;20.00;74.80;100402.25;5004224;28;20053;-72
2023/09/02 10:30:59;;;;;;;6.22;3.75;;;;;;;20.01;74.48;100401.34;5001298;28;20054;-72
2023/09/02 10:33:38;;;;;;;5.18;3.20;;;;;;;20.03;74.66;100402.19;5009676;28;20686;-71
2023/09/02 10:36:08;;;;;;;5.20;3.17;;;;;;;20.03;74.22;100399.56;5007286;28;20058;-72
2023/09/02 10:38:42;;;;;;;5.30;3.08;;;;;;;20.05;73.98;100413.56;5007206;28;20057;-71
2023/09/02 10:41:17;;;;;;;5.75;2.90;;;;;;;20.06;73.94;100417.91;5004614;28;20081;-71
2023/09/02 10:43:47;;;;;;;6.22;2.97;;;;;;;20.06;73.93;100405.63;5004774;28;20096;-72
2023/09/02 10:46:15;;;;;;;4.85;2.75;;;;;;;20.07;73.93;100417.03;5003449;28;20054;-72
2023/09/02 10:48:46;;;;;;;5.22;3.00;;;;;;;20.08;73.78;100419.59;5005523;28;20050;-72
2023/09/02 10:51:17;;;;;;;4.68;3.40;;;;;;;20.08;73.46;100424.00;5013607;28;20082;-72
2023/09/02 10:54:06;;;;;;;5.45;3.30;;;;;;;20.07;73.72;100423.13;5000384;28;20053;-73
2023/09/02 10:56:38;;;;;;;4.88;2.88;;;;;;;20.06;73.58;100418.75;5007650;28;20045;-74
2023/09/02 10:59:08;;;;;;;6.85;3.72;;;;;;;20.06;73.59;100405.63;5000477;28;20161;-74
2023/09/02 11:01:47;;;;;;;5.47;3.10;;;;;;;20.06;73.63;100410.03;5004595;28;20049;-74
2023/09/02 11:04:19;;;;;;;5.03;2.92;;;;;;;20.04;74.01;100422.31;4999661;28;20066;-73
2023/09/02 11:07:24;;;;;;;5.43;3.20;;;;;;;20.03;74.34;100429.31;5008060;28;20124;-72
2023/09/02 11:09:56;;;;;;;5.20;3.13;;;;;;;20.01;73.57;100422.34;5004620;28;20049;-75
2023/09/02 11:12:25;;;;;;;4.03;2.70;;;;;;;20.00;74.52;100415.38;5007377;28;20052;-76
2023/09/02 11:15:15;;;;;;;5.15;3.75;;;;;;;19.95;74.64;100412.81;5006347;28;20058;-75
2023/09/02 11:17:44;;;;;;;5.72;2.90;;;;;;;19.91;74.90;100412.91;5008015;28;20038;-73
2023/09/02 11:20:13;;;;;;;4.47;2.78;;;;;;;19.85;75.17;100398.09;5004849;28;20050;-73
2023/09/02 11:22:56;;;;;;;5.82;3.05;;;;;;;19.81;75.44;100410.41;5003289;28;20112;-71
2023/09/02 11:25:34;;;;;;;3.95;2.50;;;;;;;19.79;80.14;100422.69;5004529;28;20054;-74
2023/09/02 11:28:04;;;;;;;7.72;3.80;;;;;;;19.74;79.03;100419.22;5008997;28;20132;-73
2023/09/02 11:30:37;;;;;;;7.70;3.63;;;;;;;19.71;79.96;100423.66;5004198;28;20045;-74
2023/09/02 11:33:06;;;;;;;4.88;2.75;;;;;;;19.66;79.05;100426.31;5007591;28;20046;-74
2023/09/02 11:35:36;;;;;;;5.95;3.85;;;;;;;19.59;79.24;100429.91;5009357;28;20086;-74
2023/09/02 11:38:20;;;;;;;6.57;3.10;;;;;;;19.58;77.67;100428.16;5008102;28;20750;-72
2023/09/02 11:40:58;;;;;;;5.82;2.67;;;;;;;19.55;82.43;100431.69;5007316;28;20092;-76
2023/09/02 11:43:30;;;;;;;4.97;2.85;;;;;;;19.51;81.58;100430.00;5008931;28;20134;-76